sensor_id;sensor_type;location;lat;lon;timestamp;P1;durP1;ratioP1;P2;durP2;ratioP2
76566;SDS011;65428;53.194;6.132;2023-07-28T00:02:23;67.15;;;24.63;;
76566;SDS011;65428;53.194;6.132;2023-07-28T00:04:49;62.47;;;24.73;;
76566;SDS011;65428;53.194;6.132;2023-07-28T00:07:15;53.38;;;22.77;;
76566;SDS011;65428;53.194;6.132;2023-07-28T00:09:40;56.73;;;23.73;;
76566;SDS011;65428;53.194;6.132;2023-07-28T00:12:06;63.57;;;24.33;;
76566;SDS011;65428;53.194;6.132;2023-07-28T00:14:32;74.43;;;25.60;;
76566;SDS011;65428;53.194;6.132;2023-07-28T00:16:58;78.78;;;25.83;;
76566;SDS011;65428;53.194;6.132;2023-07-28T00:19:23;58.30;;;22.73;;
76566;SDS011;65428;53.194;6.132;2023-07-28T00:21:50;67.30;;;25.27;;
76566;SDS011;65428;53.194;6.132;2023-07-28T00:24:16;65.93;;;24.35;;
76566;SDS011;65428;53.194;6.132;2023-07-28T00:26:43;74.40;;;24.70;;
76566;SDS011;65428;53.194;6.132;2023-07-28T00:29:09;64.07;;;24.65;;
76566;SDS011;65428;53.194;6.132;2023-07-28T00:31:35;68.90;;;24.50;;
76566;SDS011;65428;53.194;6.132;2023-07-28T00:34:01;64.88;;;24.27;;
76566;SDS011;65428;53.194;6.132;2023-07-28T00:36:28;84.03;;;26.90;;
76566;SDS011;65428;53.194;6.132;2023-07-28T00:39:04;65.95;;;25.60;;
76566;SDS011;65428;53.194;6.132;2023-07-28T00:41:30;65.78;;;24.42;;
76566;SDS011;65428;53.194;6.132;2023-07-28T00:43:55;58.88;;;24.42;;
76566;SDS011;65428;53.194;6.132;2023-07-28T00:46:21;79.93;;;25.60;;
76566;SDS011;65428;53.194;6.132;2023-07-28T00:48:47;67.15;;;25.55;;
76566;SDS011;65428;53.194;6.132;2023-07-28T00:51:13;68.75;;;25.48;;
76566;SDS011;65428;53.194;6.132;2023-07-28T00:53:39;68.90;;;26.10;;
76566;SDS011;65428;53.194;6.132;2023-07-28T00:56:06;75.00;;;26.10;;
76566;SDS011;65428;53.194;6.132;2023-07-28T00:58:33;83.57;;;27.45;;
76566;SDS011;65428;53.194;6.132;2023-07-28T01:01:03;101.63;;;28.58;;
76566;SDS011;65428;53.194;6.132;2023-07-28T01:03:30;81.57;;;28.27;;
76566;SDS011;65428;53.194;6.132;2023-07-28T01:11:57;89.28;;;27.92;;
76566;SDS011;65428;53.194;6.132;2023-07-28T01:17:42;98.47;;;28.75;;
76566;SDS011;65428;53.194;6.132;2023-07-28T01:35:38;179.95;;;35.28;;
76566;SDS011;65428;53.194;6.132;2023-07-28T01:38:06;103.93;;;31.05;;
76566;SDS011;65428;53.194;6.132;2023-07-28T01:40:32;139.00;;;34.13;;
76566;SDS011;65428;53.194;6.132;2023-07-28T01:43:04;137.10;;;33.88;;
76566;SDS011;65428;53.194;6.132;2023-07-28T01:45:29;129.65;;;32.45;;
76566;SDS011;65428;53.194;6.132;2023-07-28T01:47:55;133.88;;;33.90;;
76566;SDS011;65428;53.194;6.132;2023-07-28T01:50:21;112.60;;;31.67;;
76566;SDS011;65428;53.194;6.132;2023-07-28T01:52:47;90.97;;;30.13;;
76566;SDS011;65428;53.194;6.132;2023-07-28T01:55:18;114.53;;;31.50;;
76566;SDS011;65428;53.194;6.132;2023-07-28T01:58:34;86.13;;;29.15;;
76566;SDS011;65428;53.194;6.132;2023-07-28T02:00:59;118.87;;;31.47;;
76566;SDS011;65428;53.194;6.132;2023-07-28T02:03:25;105.95;;;29.52;;
76566;SDS011;65428;53.194;6.132;2023-07-28T02:05:51;115.97;;;32.20;;
76566;SDS011;65428;53.194;6.132;2023-07-28T02:08:17;138.50;;;33.33;;
76566;SDS011;65428;53.194;6.132;2023-07-28T02:10:44;109.47;;;30.50;;
76566;SDS011;65428;53.194;6.132;2023-07-28T02:13:09;136.82;;;32.58;;
76566;SDS011;65428;53.194;6.132;2023-07-28T02:15:35;103.03;;;30.43;;
76566;SDS011;65428;53.194;6.132;2023-07-28T02:18:04;94.60;;;29.05;;
76566;SDS011;65428;53.194;6.132;2023-07-28T02:20:30;106.70;;;31.07;;
76566;SDS011;65428;53.194;6.132;2023-07-28T02:22:55;149.45;;;33.85;;
76566;SDS011;65428;53.194;6.132;2023-07-28T02:25:24;78.90;;;28.13;;
76566;SDS011;65428;53.194;6.132;2023-07-28T02:27:49;77.47;;;27.40;;
76566;SDS011;65428;53.194;6.132;2023-07-28T02:30:16;101.97;;;29.13;;
76566;SDS011;65428;53.194;6.132;2023-07-28T02:32:42;97.57;;;29.25;;
76566;SDS011;65428;53.194;6.132;2023-07-28T02:35:07;104.10;;;28.30;;
76566;SDS011;65428;53.194;6.132;2023-07-28T02:37:33;87.05;;;27.95;;
76566;SDS011;65428;53.194;6.132;2023-07-28T02:39:59;79.72;;;26.15;;
76566;SDS011;65428;53.194;6.132;2023-07-28T02:42:27;77.80;;;24.53;;
76566;SDS011;65428;53.194;6.132;2023-07-28T02:44:53;74.72;;;24.17;;
76566;SDS011;65428;53.194;6.132;2023-07-28T02:47:19;95.40;;;25.73;;
76566;SDS011;65428;53.194;6.132;2023-07-28T02:49:44;103.10;;;25.03;;
76566;SDS011;65428;53.194;6.132;2023-07-28T02:52:10;93.97;;;23.88;;
76566;SDS011;65428;53.194;6.132;2023-07-28T02:54:36;61.70;;;21.45;;
76566;SDS011;65428;53.194;6.132;2023-07-28T02:57:02;77.67;;;22.67;;
76566;SDS011;65428;53.194;6.132;2023-07-28T02:59:28;53.33;;;19.23;;
76566;SDS011;65428;53.194;6.132;2023-07-28T03:01:53;66.35;;;21.77;;
76566;SDS011;65428;53.194;6.132;2023-07-28T03:04:19;67.73;;;21.20;;
76566;SDS011;65428;53.194;6.132;2023-07-28T03:06:45;64.55;;;20.20;;
76566;SDS011;65428;53.194;6.132;2023-07-28T03:09:11;61.53;;;18.63;;
76566;SDS011;65428;53.194;6.132;2023-07-28T03:11:37;99.63;;;23.50;;
76566;SDS011;65428;53.194;6.132;2023-07-28T03:14:03;57.20;;;19.07;;
76566;SDS011;65428;53.194;6.132;2023-07-28T03:16:28;61.10;;;19.60;;
76566;SDS011;65428;53.194;6.132;2023-07-28T03:18:54;76.87;;;21.43;;
76566;SDS011;65428;53.194;6.132;2023-07-28T03:21:20;41.85;;;16.33;;
76566;SDS011;65428;53.194;6.132;2023-07-28T03:23:46;57.70;;;18.88;;
76566;SDS011;65428;53.194;6.132;2023-07-28T03:26:12;84.20;;;21.37;;
76566;SDS011;65428;53.194;6.132;2023-07-28T03:28:37;53.70;;;18.50;;
76566;SDS011;65428;53.194;6.132;2023-07-28T03:31:03;48.93;;;17.77;;
76566;SDS011;65428;53.194;6.132;2023-07-28T03:33:28;75.07;;;20.65;;
76566;SDS011;65428;53.194;6.132;2023-07-28T03:35:54;52.43;;;17.70;;
76566;SDS011;65428;53.194;6.132;2023-07-28T03:38:20;54.78;;;17.42;;
76566;SDS011;65428;53.194;6.132;2023-07-28T03:40:46;48.23;;;17.50;;
76566;SDS011;65428;53.194;6.132;2023-07-28T03:43:11;53.13;;;18.60;;
76566;SDS011;65428;53.194;6.132;2023-07-28T03:45:37;62.63;;;20.08;;
76566;SDS011;65428;53.194;6.132;2023-07-28T03:48:03;49.13;;;19.40;;
76566;SDS011;65428;53.194;6.132;2023-07-28T03:50:28;60.58;;;20.85;;
76566;SDS011;65428;53.194;6.132;2023-07-28T03:53:03;64.23;;;20.03;;
76566;SDS011;65428;53.194;6.132;2023-07-28T03:55:39;64.05;;;20.25;;
76566;SDS011;65428;53.194;6.132;2023-07-28T03:58:27;59.80;;;20.17;;
76566;SDS011;65428;53.194;6.132;2023-07-28T04:00:53;76.43;;;21.77;;
76566;SDS011;65428;53.194;6.132;2023-07-28T04:03:25;62.63;;;20.63;;
76566;SDS011;65428;53.194;6.132;2023-07-28T04:06:17;43.55;;;19.25;;
76566;SDS011;65428;53.194;6.132;2023-07-28T04:08:43;47.05;;;19.05;;
76566;SDS011;65428;53.194;6.132;2023-07-28T04:11:35;47.37;;;17.57;;
76566;SDS011;65428;53.194;6.132;2023-07-28T04:14:07;55.40;;;18.50;;
76566;SDS011;65428;53.194;6.132;2023-07-28T04:16:43;40.13;;;16.67;;
76566;SDS011;65428;53.194;6.132;2023-07-28T04:19:14;50.65;;;18.42;;
76566;SDS011;65428;53.194;6.132;2023-07-28T04:21:43;45.83;;;17.35;;
76566;SDS011;65428;53.194;6.132;2023-07-28T04:24:33;38.42;;;14.82;;
76566;SDS011;65428;53.194;6.132;2023-07-28T04:27:02;47.17;;;15.23;;
76566;SDS011;65428;53.194;6.132;2023-07-28T04:29:33;39.45;;;16.23;;
76566;SDS011;65428;53.194;6.132;2023-07-28T04:32:04;55.20;;;18.27;;
76566;SDS011;65428;53.194;6.132;2023-07-28T04:34:32;41.77;;;15.93;;
76566;SDS011;65428;53.194;6.132;2023-07-28T04:36:58;41.20;;;15.93;;
76566;SDS011;65428;53.194;6.132;2023-07-28T04:39:24;43.17;;;17.37;;
76566;SDS011;65428;53.194;6.132;2023-07-28T04:41:50;40.00;;;17.60;;
76566;SDS011;65428;53.194;6.132;2023-07-28T04:44:33;44.42;;;16.80;;
76566;SDS011;65428;53.194;6.132;2023-07-28T04:47:09;38.55;;;16.73;;
76566;SDS011;65428;53.194;6.132;2023-07-28T04:49:35;44.45;;;17.85;;
76566;SDS011;65428;53.194;6.132;2023-07-28T04:52:00;38.67;;;17.80;;
76566;SDS011;65428;53.194;6.132;2023-07-28T04:54:27;34.50;;;15.60;;
76566;SDS011;65428;53.194;6.132;2023-07-28T04:56:53;39.35;;;16.95;;
76566;SDS011;65428;53.194;6.132;2023-07-28T04:59:19;37.90;;;16.17;;
76566;SDS011;65428;53.194;6.132;2023-07-28T05:01:45;34.83;;;16.45;;
76566;SDS011;65428;53.194;6.132;2023-07-28T05:04:11;31.45;;;16.60;;
76566;SDS011;65428;53.194;6.132;2023-07-28T05:06:36;40.57;;;17.93;;
76566;SDS011;65428;53.194;6.132;2023-07-28T05:09:02;38.55;;;19.15;;
76566;SDS011;65428;53.194;6.132;2023-07-28T05:11:28;29.40;;;16.37;;
76566;SDS011;65428;53.194;6.132;2023-07-28T05:13:53;40.13;;;19.42;;
76566;SDS011;65428;53.194;6.132;2023-07-28T05:16:19;42.87;;;21.10;;
76566;SDS011;65428;53.194;6.132;2023-07-28T05:18:45;36.88;;;20.13;;
76566;SDS011;65428;53.194;6.132;2023-07-28T05:21:10;42.77;;;22.23;;
76566;SDS011;65428;53.194;6.132;2023-07-28T05:23:36;41.80;;;21.25;;
76566;SDS011;65428;53.194;6.132;2023-07-28T05:26:02;42.63;;;22.10;;
76566;SDS011;65428;53.194;6.132;2023-07-28T05:28:27;39.45;;;21.88;;
76566;SDS011;65428;53.194;6.132;2023-07-28T05:30:53;39.03;;;22.33;;
76566;SDS011;65428;53.194;6.132;2023-07-28T05:33:19;41.22;;;22.80;;
76566;SDS011;65428;53.194;6.132;2023-07-28T05:35:46;39.30;;;22.15;;
76566;SDS011;65428;53.194;6.132;2023-07-28T05:38:11;64.40;;;28.10;;
76566;SDS011;65428;53.194;6.132;2023-07-28T05:40:37;40.38;;;23.65;;
76566;SDS011;65428;53.194;6.132;2023-07-28T05:43:03;43.20;;;25.73;;
76566;SDS011;65428;53.194;6.132;2023-07-28T05:45:28;49.83;;;26.95;;
76566;SDS011;65428;53.194;6.132;2023-07-28T05:47:54;40.27;;;25.37;;
76566;SDS011;65428;53.194;6.132;2023-07-28T05:50:44;58.95;;;29.40;;
76566;SDS011;65428;53.194;6.132;2023-07-28T05:53:11;53.35;;;29.00;;
76566;SDS011;65428;53.194;6.132;2023-07-28T05:55:36;37.53;;;26.45;;
76566;SDS011;65428;53.194;6.132;2023-07-28T05:58:02;37.22;;;26.52;;
76566;SDS011;65428;53.194;6.132;2023-07-28T06:00:28;41.93;;;28.43;;
76566;SDS011;65428;53.194;6.132;2023-07-28T06:02:54;40.00;;;27.23;;
76566;SDS011;65428;53.194;6.132;2023-07-28T06:05:19;40.90;;;27.23;;
76566;SDS011;65428;53.194;6.132;2023-07-28T06:07:45;47.30;;;28.40;;
76566;SDS011;65428;53.194;6.132;2023-07-28T06:10:11;44.03;;;27.93;;
76566;SDS011;65428;53.194;6.132;2023-07-28T06:12:36;36.85;;;27.35;;
76566;SDS011;65428;53.194;6.132;2023-07-28T06:15:02;43.70;;;29.20;;
76566;SDS011;65428;53.194;6.132;2023-07-28T06:17:28;39.10;;;27.55;;
76566;SDS011;65428;53.194;6.132;2023-07-28T06:19:54;44.63;;;30.37;;
76566;SDS011;65428;53.194;6.132;2023-07-28T06:22:20;36.67;;;26.88;;
76566;SDS011;65428;53.194;6.132;2023-07-28T06:24:45;36.70;;;26.93;;
76566;SDS011;65428;53.194;6.132;2023-07-28T06:27:11;28.90;;;23.20;;
76566;SDS011;65428;53.194;6.132;2023-07-28T06:29:37;27.27;;;22.03;;
76566;SDS011;65428;53.194;6.132;2023-07-28T06:32:02;27.48;;;22.98;;
76566;SDS011;65428;53.194;6.132;2023-07-28T06:34:28;29.27;;;22.93;;
76566;SDS011;65428;53.194;6.132;2023-07-28T06:36:54;30.58;;;22.77;;
76566;SDS011;65428;53.194;6.132;2023-07-28T06:39:20;25.02;;;20.50;;
76566;SDS011;65428;53.194;6.132;2023-07-28T06:41:46;24.40;;;20.83;;
76566;SDS011;65428;53.194;6.132;2023-07-28T06:44:11;26.77;;;20.33;;
76566;SDS011;65428;53.194;6.132;2023-07-28T06:46:37;27.27;;;21.87;;
76566;SDS011;65428;53.194;6.132;2023-07-28T06:49:03;28.02;;;23.42;;
76566;SDS011;65428;53.194;6.132;2023-07-28T06:51:28;29.70;;;24.17;;
76566;SDS011;65428;53.194;6.132;2023-07-28T06:53:54;26.10;;;22.33;;
76566;SDS011;65428;53.194;6.132;2023-07-28T06:56:20;24.52;;;21.52;;
76566;SDS011;65428;53.194;6.132;2023-07-28T06:58:46;20.65;;;18.48;;
76566;SDS011;65428;53.194;6.132;2023-07-28T07:01:11;21.13;;;18.43;;
76566;SDS011;65428;53.194;6.132;2023-07-28T07:03:37;24.35;;;20.92;;
76566;SDS011;65428;53.194;6.132;2023-07-28T07:06:03;22.87;;;20.20;;
76566;SDS011;65428;53.194;6.132;2023-07-28T07:08:28;22.55;;;19.92;;
76566;SDS011;65428;53.194;6.132;2023-07-28T07:10:54;24.43;;;21.77;;
76566;SDS011;65428;53.194;6.132;2023-07-28T07:13:20;25.38;;;22.20;;
76566;SDS011;65428;53.194;6.132;2023-07-28T07:15:46;21.45;;;19.33;;
76566;SDS011;65428;53.194;6.132;2023-07-28T07:18:11;20.73;;;18.20;;
76566;SDS011;65428;53.194;6.132;2023-07-28T07:20:38;19.50;;;17.50;;
76566;SDS011;65428;53.194;6.132;2023-07-28T07:23:04;23.05;;;19.42;;
76566;SDS011;65428;53.194;6.132;2023-07-28T07:25:30;23.10;;;20.30;;
76566;SDS011;65428;53.194;6.132;2023-07-28T07:27:55;22.58;;;18.30;;
76566;SDS011;65428;53.194;6.132;2023-07-28T07:30:21;20.50;;;18.50;;
76566;SDS011;65428;53.194;6.132;2023-07-28T07:32:47;21.20;;;19.02;;
76566;SDS011;65428;53.194;6.132;2023-07-28T07:35:13;22.42;;;20.30;;
76566;SDS011;65428;53.194;6.132;2023-07-28T07:37:40;25.17;;;22.47;;
76566;SDS011;65428;53.194;6.132;2023-07-28T07:40:06;25.73;;;22.15;;
76566;SDS011;65428;53.194;6.132;2023-07-28T07:42:48;24.70;;;21.07;;
76566;SDS011;65428;53.194;6.132;2023-07-28T07:45:14;23.42;;;21.23;;
76566;SDS011;65428;53.194;6.132;2023-07-28T07:47:41;25.88;;;23.20;;
76566;SDS011;65428;53.194;6.132;2023-07-28T07:50:07;26.80;;;24.10;;
76566;SDS011;65428;53.194;6.132;2023-07-28T07:52:34;24.67;;;22.23;;
76566;SDS011;65428;53.194;6.132;2023-07-28T07:55:01;23.85;;;21.60;;
76566;SDS011;65428;53.194;6.132;2023-07-28T07:57:27;23.17;;;20.67;;
76566;SDS011;65428;53.194;6.132;2023-07-28T07:59:54;24.30;;;21.63;;
76566;SDS011;65428;53.194;6.132;2023-07-28T08:02:19;19.10;;;17.20;;
76566;SDS011;65428;53.194;6.132;2023-07-28T08:04:45;20.25;;;17.77;;
76566;SDS011;65428;53.194;6.132;2023-07-28T08:07:11;19.35;;;17.35;;
76566;SDS011;65428;53.194;6.132;2023-07-28T08:09:37;17.70;;;16.10;;
76566;SDS011;65428;53.194;6.132;2023-07-28T08:12:03;20.20;;;18.20;;
76566;SDS011;65428;53.194;6.132;2023-07-28T08:14:29;20.45;;;18.52;;
76566;SDS011;65428;53.194;6.132;2023-07-28T08:16:55;18.38;;;16.60;;
76566;SDS011;65428;53.194;6.132;2023-07-28T08:19:20;19.43;;;17.53;;
76566;SDS011;65428;53.194;6.132;2023-07-28T08:21:46;18.75;;;16.95;;
76566;SDS011;65428;53.194;6.132;2023-07-28T08:24:12;16.77;;;15.17;;
76566;SDS011;65428;53.194;6.132;2023-07-28T08:26:37;18.90;;;17.15;;
76566;SDS011;65428;53.194;6.132;2023-07-28T08:29:03;16.63;;;15.13;;
76566;SDS011;65428;53.194;6.132;2023-07-28T08:31:29;17.98;;;16.13;;
76566;SDS011;65428;53.194;6.132;2023-07-28T08:33:55;16.73;;;15.13;;
76566;SDS011;65428;53.194;6.132;2023-07-28T08:36:21;16.10;;;14.60;;
76566;SDS011;65428;53.194;6.132;2023-07-28T08:38:46;16.77;;;15.17;;
76566;SDS011;65428;53.194;6.132;2023-07-28T08:41:12;14.70;;;13.30;;
76566;SDS011;65428;53.194;6.132;2023-07-28T08:43:39;16.45;;;14.95;;
76566;SDS011;65428;53.194;6.132;2023-07-28T08:46:05;15.35;;;13.85;;
76566;SDS011;65428;53.194;6.132;2023-07-28T08:48:31;15.43;;;13.95;;
76566;SDS011;65428;53.194;6.132;2023-07-28T08:50:56;13.73;;;12.43;;
76566;SDS011;65428;53.194;6.132;2023-07-28T08:53:22;16.77;;;15.05;;
76566;SDS011;65428;53.194;6.132;2023-07-28T08:55:48;12.73;;;11.63;;
76566;SDS011;65428;53.194;6.132;2023-07-28T08:58:21;11.77;;;10.88;;
76566;SDS011;65428;53.194;6.132;2023-07-28T09:00:48;10.47;;;9.30;;
76566;SDS011;65428;53.194;6.132;2023-07-28T09:03:15;9.90;;;9.00;;
76566;SDS011;65428;53.194;6.132;2023-07-28T09:05:45;8.40;;;7.60;;
76566;SDS011;65428;53.194;6.132;2023-07-28T09:08:14;9.82;;;8.93;;
76566;SDS011;65428;53.194;6.132;2023-07-28T09:10:45;10.13;;;9.32;;
76566;SDS011;65428;53.194;6.132;2023-07-28T09:13:16;13.33;;;12.23;;
76566;SDS011;65428;53.194;6.132;2023-07-28T09:15:44;11.15;;;10.13;;
76566;SDS011;65428;53.194;6.132;2023-07-28T09:18:17;9.40;;;8.65;;
76566;SDS011;65428;53.194;6.132;2023-07-28T09:20:43;11.10;;;10.18;;
76566;SDS011;65428;53.194;6.132;2023-07-28T09:23:09;8.90;;;8.05;;
76566;SDS011;65428;53.194;6.132;2023-07-28T09:25:36;7.53;;;6.82;;
76566;SDS011;65428;53.194;6.132;2023-07-28T09:28:03;6.18;;;5.47;;
76566;SDS011;65428;53.194;6.132;2023-07-28T09:30:43;6.43;;;5.80;;
76566;SDS011;65428;53.194;6.132;2023-07-28T09:33:14;6.40;;;5.90;;
76566;SDS011;65428;53.194;6.132;2023-07-28T09:35:54;7.15;;;6.53;;
76566;SDS011;65428;53.194;6.132;2023-07-28T09:38:20;8.35;;;7.65;;
76566;SDS011;65428;53.194;6.132;2023-07-28T09:40:47;5.83;;;4.93;;
76566;SDS011;65428;53.194;6.132;2023-07-28T09:43:14;7.85;;;6.35;;
76566;SDS011;65428;53.194;6.132;2023-07-28T09:45:40;5.93;;;5.50;;
76566;SDS011;65428;53.194;6.132;2023-07-28T09:48:08;6.00;;;5.40;;
76566;SDS011;65428;53.194;6.132;2023-07-28T09:50:36;4.75;;;4.30;;
76566;SDS011;65428;53.194;6.132;2023-07-28T09:53:03;5.57;;;4.93;;
76566;SDS011;65428;53.194;6.132;2023-07-28T09:55:29;4.40;;;3.92;;
76566;SDS011;65428;53.194;6.132;2023-07-28T09:57:55;5.82;;;3.95;;
76566;SDS011;65428;53.194;6.132;2023-07-28T10:00:25;4.70;;;4.30;;
76566;SDS011;65428;53.194;6.132;2023-07-28T10:02:51;4.73;;;4.30;;
76566;SDS011;65428;53.194;6.132;2023-07-28T10:05:18;4.00;;;3.55;;
76566;SDS011;65428;53.194;6.132;2023-07-28T10:07:44;4.00;;;3.60;;
76566;SDS011;65428;53.194;6.132;2023-07-28T10:10:12;4.25;;;3.85;;
76566;SDS011;65428;53.194;6.132;2023-07-28T10:12:45;4.07;;;3.67;;
76566;SDS011;65428;53.194;6.132;2023-07-28T10:15:13;5.13;;;4.53;;
76566;SDS011;65428;53.194;6.132;2023-07-28T10:17:44;4.75;;;3.90;;
76566;SDS011;65428;53.194;6.132;2023-07-28T10:22:53;4.28;;;3.30;;
76566;SDS011;65428;53.194;6.132;2023-07-28T10:25:24;3.67;;;2.50;;
76566;SDS011;65428;53.194;6.132;2023-07-28T10:27:51;2.87;;;2.27;;
76566;SDS011;65428;53.194;6.132;2023-07-28T10:30:17;3.60;;;2.70;;
76566;SDS011;65428;53.194;6.132;2023-07-28T10:32:45;4.30;;;2.70;;
76566;SDS011;65428;53.194;6.132;2023-07-28T10:37:46;3.45;;;2.65;;
76566;SDS011;65428;53.194;6.132;2023-07-28T10:42:59;3.97;;;2.35;;
76566;SDS011;65428;53.194;6.132;2023-07-28T10:45:26;4.28;;;3.40;;
76566;SDS011;65428;53.194;6.132;2023-07-28T10:47:54;3.97;;;2.87;;
76566;SDS011;65428;53.194;6.132;2023-07-28T10:50:21;3.42;;;3.10;;
76566;SDS011;65428;53.194;6.132;2023-07-28T10:52:48;3.83;;;3.38;;
76566;SDS011;65428;53.194;6.132;2023-07-28T10:55:18;3.88;;;3.35;;
76566;SDS011;65428;53.194;6.132;2023-07-28T10:58:02;3.72;;;2.35;;
76566;SDS011;65428;53.194;6.132;2023-07-28T11:00:27;3.03;;;2.10;;
76566;SDS011;65428;53.194;6.132;2023-07-28T11:02:54;2.42;;;2.00;;
76566;SDS011;65428;53.194;6.132;2023-07-28T11:05:21;2.78;;;1.50;;
76566;SDS011;65428;53.194;6.132;2023-07-28T11:07:48;2.05;;;1.73;;
76566;SDS011;65428;53.194;6.132;2023-07-28T11:10:15;3.30;;;1.60;;
76566;SDS011;65428;53.194;6.132;2023-07-28T11:12:42;2.30;;;2.05;;
76566;SDS011;65428;53.194;6.132;2023-07-28T11:15:13;3.73;;;1.90;;
76566;SDS011;65428;53.194;6.132;2023-07-28T11:17:40;4.07;;;1.50;;
76566;SDS011;65428;53.194;6.132;2023-07-28T11:20:16;2.20;;;1.30;;
76566;SDS011;65428;53.194;6.132;2023-07-28T11:22:43;1.80;;;1.00;;
76566;SDS011;65428;53.194;6.132;2023-07-28T11:25:09;2.20;;;0.90;;
76566;SDS011;65428;53.194;6.132;2023-07-28T11:27:39;2.70;;;0.90;;
76566;SDS011;65428;53.194;6.132;2023-07-28T11:30:08;2.92;;;1.10;;
76566;SDS011;65428;53.194;6.132;2023-07-28T11:32:37;2.33;;;0.80;;
76566;SDS011;65428;53.194;6.132;2023-07-28T11:35:03;1.65;;;1.02;;
76566;SDS011;65428;53.194;6.132;2023-07-28T11:37:30;1.58;;;0.50;;
76566;SDS011;65428;53.194;6.132;2023-07-28T11:39:58;2.15;;;0.50;;
76566;SDS011;65428;53.194;6.132;2023-07-28T11:42:26;2.30;;;0.60;;
76566;SDS011;65428;53.194;6.132;2023-07-28T11:44:53;2.47;;;1.00;;
76566;SDS011;65428;53.194;6.132;2023-07-28T11:47:19;2.28;;;0.70;;
76566;SDS011;65428;53.194;6.132;2023-07-28T11:49:46;2.97;;;0.82;;
76566;SDS011;65428;53.194;6.132;2023-07-28T11:52:12;3.35;;;0.50;;
76566;SDS011;65428;53.194;6.132;2023-07-28T11:54:38;1.87;;;0.80;;
76566;SDS011;65428;53.194;6.132;2023-07-28T11:57:04;1.77;;;0.75;;
76566;SDS011;65428;53.194;6.132;2023-07-28T11:59:34;1.83;;;0.70;;
76566;SDS011;65428;53.194;6.132;2023-07-28T12:02:01;2.25;;;0.90;;
76566;SDS011;65428;53.194;6.132;2023-07-28T12:04:28;2.15;;;0.60;;
76566;SDS011;65428;53.194;6.132;2023-07-28T12:09:52;2.40;;;0.50;;
76566;SDS011;65428;53.194;6.132;2023-07-28T12:12:18;2.17;;;0.82;;
76566;SDS011;65428;53.194;6.132;2023-07-28T12:14:45;2.53;;;0.93;;
76566;SDS011;65428;53.194;6.132;2023-07-28T12:20:06;1.25;;;0.90;;
76566;SDS011;65428;53.194;6.132;2023-07-28T12:22:36;2.08;;;0.80;;
76566;SDS011;65428;53.194;6.132;2023-07-28T12:25:03;2.83;;;0.75;;
76566;SDS011;65428;53.194;6.132;2023-07-28T12:27:30;1.67;;;0.60;;
76566;SDS011;65428;53.194;6.132;2023-07-28T12:29:56;1.60;;;0.40;;
76566;SDS011;65428;53.194;6.132;2023-07-28T12:32:22;1.52;;;0.90;;
76566;SDS011;65428;53.194;6.132;2023-07-28T12:34:48;2.17;;;0.50;;
76566;SDS011;65428;53.194;6.132;2023-07-28T12:37:14;1.35;;;0.70;;
76566;SDS011;65428;53.194;6.132;2023-07-28T12:39:40;1.42;;;0.70;;
76566;SDS011;65428;53.194;6.132;2023-07-28T12:42:07;2.00;;;0.70;;
76566;SDS011;65428;53.194;6.132;2023-07-28T12:44:34;1.90;;;0.75;;
76566;SDS011;65428;53.194;6.132;2023-07-28T12:47:00;1.25;;;0.57;;
76566;SDS011;65428;53.194;6.132;2023-07-28T12:49:25;1.70;;;0.60;;
76566;SDS011;65428;53.194;6.132;2023-07-28T12:51:53;1.80;;;0.80;;
76566;SDS011;65428;53.194;6.132;2023-07-28T12:54:18;1.27;;;0.65;;
76566;SDS011;65428;53.194;6.132;2023-07-28T12:56:44;2.30;;;0.90;;
76566;SDS011;65428;53.194;6.132;2023-07-28T12:59:11;2.40;;;1.10;;
76566;SDS011;65428;53.194;6.132;2023-07-28T13:01:37;2.88;;;1.17;;
76566;SDS011;65428;53.194;6.132;2023-07-28T13:04:03;1.53;;;1.10;;
76566;SDS011;65428;53.194;6.132;2023-07-28T13:06:28;2.75;;;1.20;;
76566;SDS011;65428;53.194;6.132;2023-07-28T13:08:54;2.07;;;1.23;;
76566;SDS011;65428;53.194;6.132;2023-07-28T13:11:20;1.95;;;1.00;;
76566;SDS011;65428;53.194;6.132;2023-07-28T13:13:45;1.92;;;1.00;;
76566;SDS011;65428;53.194;6.132;2023-07-28T13:16:11;1.80;;;1.00;;
76566;SDS011;65428;53.194;6.132;2023-07-28T13:18:37;1.52;;;0.80;;
76566;SDS011;65428;53.194;6.132;2023-07-28T13:21:04;1.98;;;1.10;;
76566;SDS011;65428;53.194;6.132;2023-07-28T13:23:31;3.15;;;1.25;;
76566;SDS011;65428;53.194;6.132;2023-07-28T13:25:57;2.17;;;0.80;;
76566;SDS011;65428;53.194;6.132;2023-07-28T13:28:23;1.48;;;0.80;;
76566;SDS011;65428;53.194;6.132;2023-07-28T13:30:50;2.05;;;1.00;;
76566;SDS011;65428;53.194;6.132;2023-07-28T13:33:16;2.40;;;1.20;;
76566;SDS011;65428;53.194;6.132;2023-07-28T13:35:42;2.23;;;1.10;;
76566;SDS011;65428;53.194;6.132;2023-07-28T13:38:08;3.30;;;1.25;;
76566;SDS011;65428;53.194;6.132;2023-07-28T13:40:34;3.17;;;1.33;;
76566;SDS011;65428;53.194;6.132;2023-07-28T13:43:00;2.92;;;1.20;;
76566;SDS011;65428;53.194;6.132;2023-07-28T13:45:26;2.70;;;1.60;;
76566;SDS011;65428;53.194;6.132;2023-07-28T13:47:52;3.42;;;1.50;;
76566;SDS011;65428;53.194;6.132;2023-07-28T13:50:17;2.67;;;1.60;;
76566;SDS011;65428;53.194;6.132;2023-07-28T13:52:43;3.45;;;2.30;;
76566;SDS011;65428;53.194;6.132;2023-07-28T13:55:09;4.05;;;2.65;;
76566;SDS011;65428;53.194;6.132;2023-07-28T13:57:35;4.47;;;2.20;;
76566;SDS011;65428;53.194;6.132;2023-07-28T14:00:00;3.08;;;2.60;;
76566;SDS011;65428;53.194;6.132;2023-07-28T14:02:27;4.95;;;2.70;;
76566;SDS011;65428;53.194;6.132;2023-07-28T14:04:53;3.58;;;2.70;;
76566;SDS011;65428;53.194;6.132;2023-07-28T14:07:19;3.30;;;3.00;;
76566;SDS011;65428;53.194;6.132;2023-07-28T14:09:44;4.43;;;3.57;;
76566;SDS011;65428;53.194;6.132;2023-07-28T14:12:10;3.85;;;3.53;;
76566;SDS011;65428;53.194;6.132;2023-07-28T14:14:36;3.75;;;2.80;;
76566;SDS011;65428;53.194;6.132;2023-07-28T14:17:02;3.30;;;2.00;;
76566;SDS011;65428;53.194;6.132;2023-07-28T14:19:27;3.60;;;2.30;;
76566;SDS011;65428;53.194;6.132;2023-07-28T14:21:53;3.35;;;2.97;;
76566;SDS011;65428;53.194;6.132;2023-07-28T14:24:19;3.70;;;2.60;;
76566;SDS011;65428;53.194;6.132;2023-07-28T14:26:45;3.78;;;2.85;;
76566;SDS011;65428;53.194;6.132;2023-07-28T14:29:10;4.63;;;2.80;;
76566;SDS011;65428;53.194;6.132;2023-07-28T14:31:36;3.43;;;2.67;;
76566;SDS011;65428;53.194;6.132;2023-07-28T14:34:01;3.70;;;3.30;;
76566;SDS011;65428;53.194;6.132;2023-07-28T14:36:27;4.43;;;3.53;;
76566;SDS011;65428;53.194;6.132;2023-07-28T14:38:53;3.87;;;3.33;;
76566;SDS011;65428;53.194;6.132;2023-07-28T14:41:18;4.60;;;3.07;;
76566;SDS011;65428;53.194;6.132;2023-07-28T14:43:44;5.47;;;2.45;;
76566;SDS011;65428;53.194;6.132;2023-07-28T14:46:10;3.97;;;3.08;;
76566;SDS011;65428;53.194;6.132;2023-07-28T14:48:36;3.67;;;2.55;;
76566;SDS011;65428;53.194;6.132;2023-07-28T14:51:02;4.00;;;3.20;;
76566;SDS011;65428;53.194;6.132;2023-07-28T14:55:54;3.88;;;3.45;;
76566;SDS011;65428;53.194;6.132;2023-07-28T14:58:20;4.90;;;3.35;;
76566;SDS011;65428;53.194;6.132;2023-07-28T15:00:46;5.57;;;3.63;;
76566;SDS011;65428;53.194;6.132;2023-07-28T15:03:11;4.93;;;4.22;;
76566;SDS011;65428;53.194;6.132;2023-07-28T15:05:37;5.53;;;4.67;;
76566;SDS011;65428;53.194;6.132;2023-07-28T15:08:03;6.13;;;4.10;;
76566;SDS011;65428;53.194;6.132;2023-07-28T15:10:28;5.13;;;3.78;;
76566;SDS011;65428;53.194;6.132;2023-07-28T15:12:54;5.50;;;4.40;;